Time;durP1;ratioP1;P1;durP2;ratioP2;P2;SDS_P1;SDS_P2;PMS_P1;PMS_P2;Temp;Humidity;BMP_temperature;BMP_pressure;BME280_temperature;BME280_humidity;BME280_pressure;Samples;Min_cycle;Max_cycle;Signal;HPM_P1;HPM_P2
2022/09/30 00:02:11;;;;;;;2.95;2.20;;;;;;;17.10;nan;-24293.50;5074966;28;20211;-77
2022/09/30 00:04:36;;;;;;;3.03;2.42;;;;;;;17.01;nan;-24291.13;5093143;28;20181;-77
2022/09/30 00:07:02;;;;;;;2.70;1.90;;;;;;;16.85;nan;-24286.66;5074765;28;20173;-76
2022/09/30 00:09:27;;;;;;;3.35;2.17;;;;;;;16.80;nan;-24285.25;5093246;28;20546;-76
2022/09/30 00:11:53;;;;;;;2.70;2.30;;;;;;;16.75;nan;-24284.00;5092785;28;20550;-76
2022/09/30 00:14:21;;;;;;;3.95;2.22;;;;;;;16.68;nan;-24281.91;5074572;28;20698;-76
2022/09/30 00:16:48;;;;;;;4.20;2.78;;;;;;;16.65;nan;-24281.22;5093526;28;20693;-76
2022/09/30 00:19:13;;;;;;;3.15;2.13;;;;;;;16.73;nan;-24283.31;5092981;28;20169;-76
2022/09/30 00:21:39;;;;;;;5.28;1.85;;;;;;;16.48;nan;-24276.44;5092596;28;20274;-76
2022/09/30 00:24:05;;;;;;;2.80;2.20;;;;;;;16.69;nan;-24282.31;5092675;28;20531;-77
2022/09/30 00:26:32;;;;;;;2.38;2.00;;;;;;;16.85;nan;-24286.66;5092307;28;20644;-76
2022/09/30 00:28:59;;;;;;;3.22;2.20;;;;;;;16.46;nan;-24275.75;5093037;28;20252;-76
2022/09/30 00:31:27;;;;;;;4.05;2.47;;;;;;;16.77;nan;-24284.56;5092749;28;20181;-76
2022/09/30 00:34:10;;;;;;;2.70;1.90;;;;;;;16.41;nan;-24274.34;5092769;28;20537;-76
2022/09/30 00:36:42;;;;;;;3.58;2.70;;;;;;;16.72;nan;-24283.03;5092300;28;20248;-76
2022/09/30 00:39:11;;;;;;;2.70;2.08;;;;;;;16.66;nan;-24281.34;5092566;28;20169;-76
2022/09/30 00:41:37;;;;;;;3.60;2.40;;;;;;;16.60;nan;-24279.66;5092642;28;20181;-76
2022/09/30 00:44:41;;;;;;;2.78;2.50;;;;;;;16.62;nan;-24280.22;5092208;28;20170;-76
2022/09/30 00:47:31;;;;;;;4.53;2.47;;;;;;;16.59;nan;-24279.41;5091987;28;20181;-76
2022/09/30 00:50:02;;;;;;;3.05;2.40;;;;;;;16.38;nan;-24273.50;5092256;28;20252;-76
2022/09/30 00:52:29;;;;;;;3.22;2.05;;;;;;;16.52;nan;-24277.44;5074090;28;20623;-76
2022/09/30 00:54:57;;;;;;;2.80;1.98;;;;;;;16.47;nan;-24276.16;5092466;28;20628;-76
2022/09/30 00:57:22;;;;;;;3.38;2.28;;;;;;;16.44;nan;-24275.34;5092520;28;20170;-76
2022/09/30 00:59:50;;;;;;;3.00;2.22;;;;;;;16.20;nan;-24268.63;5092205;28;20170;-77
2022/09/30 01:02:16;;;;;;;3.28;2.28;;;;;;;16.17;nan;-24267.94;5092520;28;20632;-76
2022/09/30 01:04:44;;;;;;;4.90;2.47;;;;;;;16.36;nan;-24273.09;5092367;28;20257;-76
2022/09/30 01:07:11;;;;;;;3.78;2.15;;;;;;;16.14;nan;-24267.09;5074221;28;20165;-77
2022/09/30 01:09:39;;;;;;;4.30;2.25;;;;;;;16.34;nan;-24272.53;5074600;28;20183;-76
2022/09/30 01:12:20;;;;;;;2.92;2.05;;;;;;;16.34;nan;-24272.53;5090127;28;20221;-75
2022/09/30 01:14:50;;;;;;;4.20;2.38;;;;;;;16.08;nan;-24265.41;5099149;28;20197;-76
2022/09/30 01:18:08;;;;;;;2.95;2.25;;;;;;;16.29;nan;-24271.28;5078247;28;20221;-76
2022/09/30 01:21:20;;;;;;;3.60;2.40;;;;;;;16.24;nan;-24269.88;5048707;28;20567;-76
2022/09/30 01:23:51;;;;;;;2.67;1.90;;;;;;;16.28;nan;-24270.84;5018948;28;20338;-76
2022/09/30 01:26:19;;;;;;;3.40;2.38;;;;;;;16.23;nan;-24269.59;5091786;28;20161;-75
2022/09/30 01:29:19;;;;;;;2.85;2.20;;;;;;;16.24;nan;-24269.75;5091557;28;20173;-76
2022/09/30 01:32:10;;;;;;;3.47;2.17;;;;;;;16.21;nan;-24268.91;5087373;28;20186;-76
2022/09/30 01:34:58;;;;;;;4.53;2.65;;;;;;;16.16;nan;-24267.50;5073421;28;20235;-76
2022/09/30 01:37:24;;;;;;;3.60;1.98;;;;;;;16.22;nan;-24269.31;5091550;28;20154;-75
2022/09/30 01:40:09;;;;;;;3.53;2.35;;;;;;;16.24;nan;-24269.88;5091473;28;20556;-75
2022/09/30 01:43:10;;;;;;;3.03;2.20;;;;;;;16.20;nan;-24268.63;5091461;28;20168;-76
2022/09/30 01:46:09;;;;;;;5.35;2.42;;;;;;;16.10;nan;-24265.97;5063567;28;20192;-76
2022/09/30 01:48:45;;;;;;;4.68;2.53;;;;;;;16.02;nan;-24263.59;5091111;28;20177;-76
2022/09/30 01:51:19;;;;;;;2.90;2.42;;;;;;;16.00;nan;-24263.16;5072916;28;20632;-76
2022/09/30 01:53:50;;;;;;;3.65;2.53;;;;;;;15.87;nan;-24259.53;5091347;28;20267;-76
2022/09/30 01:56:48;;;;;;;3.47;2.45;;;;;;;16.11;nan;-24266.09;5094976;28;20636;-76
2022/09/30 01:59:35;;;;;;;3.70;2.30;;;;;;;16.18;nan;-24268.22;5057680;28;20209;-76
2022/09/30 02:02:18;;;;;;;3.45;2.30;;;;;;;16.07;nan;-24265.00;5076865;28;20184;-76
2022/09/30 02:04:59;;;;;;;3.58;2.10;;;;;;;16.13;nan;-24266.66;5076843;28;20254;-76
2022/09/30 02:07:38;;;;;;;5.85;2.67;;;;;;;15.92;nan;-24260.94;5094877;28;20165;-76
2022/09/30 02:10:15;;;;;;;4.25;2.75;;;;;;;15.93;nan;-24261.22;5094987;28;20179;-76
2022/09/30 02:12:47;;;;;;;3.72;2.33;;;;;;;16.17;nan;-24267.78;5095289;28;20305;-75
2022/09/30 02:15:21;;;;;;;4.05;2.47;;;;;;;16.00;nan;-24263.16;5094141;28;20365;-76
2022/09/30 02:17:51;;;;;;;2.63;2.10;;;;;;;16.09;nan;-24265.56;5094259;28;20165;-76
2022/09/30 02:20:23;;;;;;;5.25;2.80;;;;;;;15.92;nan;-24260.94;5096031;28;20173;-76
2022/09/30 02:22:55;;;;;;;6.65;2.33;;;;;;;15.69;nan;-24254.63;5094871;28;20224;-76
2022/09/30 02:25:37;;;;;;;2.83;1.95;;;;;;;15.38;nan;-24245.94;5095329;28;20166;-76
2022/09/30 02:28:07;;;;;;;3.25;2.72;;;;;;;15.63;nan;-24252.94;5094704;28;20256;-76
2022/09/30 02:30:35;;;;;;;3.85;2.72;;;;;;;15.57;nan;-24251.13;5095347;28;20623;-76
2022/09/30 02:33:08;;;;;;;2.83;2.28;;;;;;;14.89;nan;-24232.50;5095196;28;20176;-76
2022/09/30 02:35:44;;;;;;;3.13;2.40;;;;;;;15.49;nan;-24249.03;5095012;28;20280;-76
2022/09/30 02:38:17;;;;;;;3.10;2.20;;;;;;;15.42;nan;-24247.06;5094814;28;20203;-76
2022/09/30 02:40:55;;;;;;;3.40;2.60;;;;;;;15.61;nan;-24252.41;5095159;28;20628;-76
2022/09/30 02:43:21;;;;;;;3.63;2.30;;;;;;;15.42;nan;-24247.06;5076637;28;20363;-75
2022/09/30 02:46:17;;;;;;;3.42;2.53;;;;;;;15.42;nan;-24247.22;5095048;28;20185;-76
2022/09/30 02:49:07;;;;;;;3.22;2.15;;;;;;;15.26;nan;-24242.59;5076542;28;20648;-75
2022/09/30 02:51:50;;;;;;;4.90;2.75;;;;;;;15.32;nan;-24244.41;5094543;28;20292;-76
2022/09/30 02:54:26;;;;;;;3.38;2.10;;;;;;;15.02;nan;-24236.00;5076364;28;20185;-76
2022/09/30 02:57:09;;;;;;;3.50;2.40;;;;;;;15.18;nan;-24240.34;5094298;28;20169;-76
2022/09/30 02:59:35;;;;;;;3.38;2.65;;;;;;;14.76;nan;-24228.72;5095160;28;20165;-76
2022/09/30 03:02:00;;;;;;;3.40;2.65;;;;;;;15.01;nan;-24235.72;5094507;28;20176;-75
2022/09/30 03:04:29;;;;;;;3.30;2.47;;;;;;;14.92;nan;-24233.34;5094602;28;20184;-76
2022/09/30 03:06:54;;;;;;;3.58;2.58;;;;;;;14.82;nan;-24230.53;5094294;28;20173;-76
2022/09/30 03:09:25;;;;;;;4.80;2.42;;;;;;;15.00;nan;-24235.44;5075882;28;20242;-76
2022/09/30 03:11:56;;;;;;;3.28;2.28;;;;;;;15.01;nan;-24235.88;5093896;28;20192;-76
2022/09/30 03:14:33;;;;;;;2.95;2.17;;;;;;;15.25;nan;-24242.31;5094781;28;20224;-77
2022/09/30 03:17:16;;;;;;;3.50;2.30;;;;;;;15.16;nan;-24239.94;5094104;28;20170;-76
2022/09/30 03:20:06;;;;;;;3.72;2.38;;;;;;;14.95;nan;-24234.19;5076138;28;20238;-76
2022/09/30 03:23:12;;;;;;;3.40;2.25;;;;;;;14.86;nan;-24231.66;5085775;28;20222;-75
2022/09/30 03:25:46;;;;;;;4.40;2.22;;;;;;;14.87;nan;-24231.94;5078413;28;20189;-76
2022/09/30 03:28:24;;;;;;;3.42;2.47;;;;;;;14.87;nan;-24231.94;5060222;28;20183;-76
2022/09/30 03:31:01;;;;;;;4.10;2.65;;;;;;;14.83;nan;-24230.81;5079098;28;20177;-77
2022/09/30 03:33:37;;;;;;;4.25;2.85;;;;;;;14.86;nan;-24231.66;5079307;28;20185;-76
2022/09/30 03:36:02;;;;;;;3.08;2.53;;;;;;;14.82;nan;-24230.53;5079536;28;20684;-76
2022/09/30 03:38:49;;;;;;;4.40;2.65;;;;;;;14.89;nan;-24232.38;5078480;28;20191;-76
2022/09/30 03:41:40;;;;;;;3.65;2.60;;;;;;;15.01;nan;-24235.88;5066343;28;20173;-76
2022/09/30 03:44:23;;;;;;;3.40;2.65;;;;;;;14.86;nan;-24231.66;5048734;28;20251;-76
2022/09/30 03:46:59;;;;;;;3.05;2.50;;;;;;;14.30;nan;-24216.09;5078166;28;20173;-76
2022/09/30 03:49:34;;;;;;;5.25;3.22;;;;;;;14.29;nan;-24215.69;5077809;28;20268;-76
2022/09/30 03:52:05;;;;;;;6.13;2.55;;;;;;;14.38;nan;-24218.34;5078722;28;20185;-76
2022/09/30 03:54:30;;;;;;;4.90;3.00;;;;;;;14.38;nan;-24218.22;5066082;28;20213;-76
2022/09/30 03:56:56;;;;;;;4.43;3.03;;;;;;;14.08;nan;-24210.06;5084193;28;20181;-76
2022/09/30 03:59:24;;;;;;;3.80;3.08;;;;;;;14.30;nan;-24215.94;5078495;28;20178;-75
2022/09/30 04:01:51;;;;;;;4.38;2.65;;;;;;;14.09;nan;-24210.19;5066761;28;20182;-76
2022/09/30 04:04:16;;;;;;;3.38;2.42;;;;;;;13.96;nan;-24206.56;5078188;28;20188;-75
2022/09/30 04:06:42;;;;;;;3.80;2.72;;;;;;;14.39;nan;-24218.63;5078058;28;20265;-77
2022/09/30 04:09:07;;;;;;;3.33;2.40;;;;;;;14.36;nan;-24217.66;5078919;28;20564;-77
2022/09/30 04:11:34;;;;;;;2.85;2.40;;;;;;;13.99;nan;-24207.41;5094031;28;20646;-77
2022/09/30 04:14:00;;;;;;;7.10;2.95;;;;;;;13.96;nan;-24206.56;5091837;28;20214;-76
2022/09/30 04:16:28;;;;;;;4.78;2.90;;;;;;;13.86;nan;-24203.88;5076519;28;20204;-76
2022/09/30 04:18:55;;;;;;;3.80;2.88;;;;;;;14.25;nan;-24214.56;5077418;28;20192;-76
2022/09/30 04:21:21;;;;;;;7.03;3.50;;;;;;;14.11;nan;-24210.75;5061135;28;20649;-76
2022/09/30 04:23:47;;;;;;;6.43;3.33;;;;;;;13.94;nan;-24206.13;5092936;28;20212;-77
2022/09/30 04:26:14;;;;;;;4.82;2.90;;;;;;;13.94;nan;-24206.13;5092285;28;20236;-77
2022/09/30 04:28:40;;;;;;;3.92;3.28;;;;;;;14.44;nan;-24220.03;5091873;28;20525;-76
2022/09/30 04:31:07;;;;;;;5.60;3.08;;;;;;;14.46;nan;-24220.59;5092014;28;20234;-77
2022/09/30 04:33:33;;;;;;;4.95;2.90;;;;;;;14.47;nan;-24220.72;5092856;28;20182;-76
2022/09/30 04:35:59;;;;;;;3.38;2.50;;;;;;;14.48;nan;-24221.16;5098058;28;20206;-78
2022/09/30 04:38:25;;;;;;;3.38;2.55;;;;;;;14.61;nan;-24224.66;5086785;28;20205;-78
2022/09/30 04:40:53;;;;;;;4.60;3.30;;;;;;;14.45;nan;-24220.16;5100595;28;20238;-78
2022/09/30 04:43:22;;;;;;;4.25;2.97;;;;;;;14.86;nan;-24231.53;5074196;28;20185;-77
2022/09/30 04:45:48;;;;;;;6.63;3.42;;;;;;;14.73;nan;-24228.03;5092193;28;20173;-77
2022/09/30 04:48:15;;;;;;;4.60;3.35;;;;;;;14.90;nan;-24232.78;5090597;28;20161;-78
2022/09/30 04:50:41;;;;;;;4.65;2.80;;;;;;;14.97;nan;-24234.75;5091612;28;20200;-78
2022/09/30 04:53:07;;;;;;;4.72;2.88;;;;;;;15.15;nan;-24239.66;5090451;28;20190;-77
2022/09/30 04:55:33;;;;;;;7.28;3.35;;;;;;;15.03;nan;-24236.28;5073879;28;20220;-75
2022/09/30 04:57:58;;;;;;;3.58;2.53;;;;;;;15.09;nan;-24237.81;5090658;28;20189;-78
2022/09/30 05:00:24;;;;;;;7.22;3.38;;;;;;;15.02;nan;-24236.16;5092551;28;20256;-75
2022/09/30 05:02:50;;;;;;;5.57;3.08;;;;;;;15.22;nan;-24241.59;5091301;28;20613;-75
2022/09/30 05:05:16;;;;;;;4.57;2.90;;;;;;;15.28;nan;-24243.28;5092275;28;20651;-75
2022/09/30 05:07:42;;;;;;;5.10;3.10;;;;;;;15.54;nan;-24250.44;5092282;28;20254;-75
2022/09/30 05:10:10;;;;;;;4.57;2.90;;;;;;;15.52;nan;-24249.88;5091576;28;20245;-75
2022/09/30 05:12:36;;;;;;;4.63;3.25;;;;;;;15.48;nan;-24248.75;5091513;28;20172;-76
2022/09/30 05:15:03;;;;;;;5.70;3.67;;;;;;;15.68;nan;-24254.22;5090869;28;20189;-74
2022/09/30 05:17:30;;;;;;;5.70;3.40;;;;;;;15.73;nan;-24255.75;5087942;28;20283;-75
2022/09/30 05:19:55;;;;;;;6.95;3.75;;;;;;;15.76;nan;-24256.59;5090757;28;20162;-78
2022/09/30 05:22:23;;;;;;;4.40;2.60;;;;;;;15.89;nan;-24260.09;5090709;28;20229;-78
2022/09/30 05:24:49;;;;;;;5.25;3.40;;;;;;;15.68;nan;-24254.34;5072508;28;20181;-76
2022/09/30 05:27:14;;;;;;;4.95;3.17;;;;;;;16.32;nan;-24271.97;5091142;28;20161;-77
2022/09/30 05:29:41;;;;;;;4.78;2.80;;;;;;;16.46;nan;-24275.75;5090871;28;20213;-77
2022/09/30 05:32:06;;;;;;;8.27;2.78;;;;;;;16.47;nan;-24276.03;5089662;28;20170;-78
2022/09/30 05:34:32;;;;;;;3.97;2.90;;;;;;;16.62;nan;-24280.38;5072166;28;20189;-76
2022/09/30 05:36:57;;;;;;;3.88;2.75;;;;;;;16.34;nan;-24272.69;5090745;28;20196;-79
2022/09/30 05:39:23;;;;;;;3.88;2.95;;;;;;;16.77;nan;-24284.56;5091384;28;20245;-78
2022/09/30 05:41:49;;;;;;;4.72;3.20;;;;;;;16.81;nan;-24285.53;5072798;28;20250;-78
2022/09/30 05:44:14;;;;;;;4.40;3.13;;;;;;;17.04;nan;-24291.97;5072350;28;20176;-76
2022/09/30 05:46:39;;;;;;;3.80;2.63;;;;;;;17.13;nan;-24294.47;5071973;28;20199;-76
2022/09/30 05:49:05;;;;;;;4.88;2.95;;;;;;;17.07;nan;-24292.66;5070967;28;20213;-77
2022/09/30 05:51:30;;;;;;;6.65;3.08;;;;;;;17.28;nan;-24298.38;5071447;28;20172;-77
2022/09/30 05:53:56;;;;;;;3.95;2.72;;;;;;;17.50;nan;-24304.53;5090181;28;20276;-77
2022/09/30 05:56:21;;;;;;;3.65;2.67;;;;;;;17.42;nan;-24302.28;5071501;28;20299;-77
2022/09/30 05:58:46;;;;;;;3.88;2.47;;;;;;;17.09;nan;-24293.22;5090331;28;20177;-77
2022/09/30 06:01:14;;;;;;;5.70;2.90;;;;;;;17.34;nan;-24300.06;5089557;28;20173;-78
2022/09/30 06:03:42;;;;;;;3.13;2.65;;;;;;;17.47;nan;-24303.81;5071241;28;20263;-77
2022/09/30 06:06:07;;;;;;;3.30;2.30;;;;;;;17.41;nan;-24302.16;5090071;28;20161;-77
2022/09/30 06:08:33;;;;;;;3.88;2.85;;;;;;;17.91;nan;-24315.97;5089746;28;20173;-77
2022/09/30 06:10:58;;;;;;;5.28;2.75;;;;;;;17.97;nan;-24317.63;5089978;28;20184;-77
2022/09/30 06:13:25;;;;;;;3.90;2.83;;;;;;;17.97;nan;-24317.50;5071888;28;20270;-77
2022/09/30 06:15:58;;;;;;;4.88;2.90;;;;;;;18.48;nan;-24331.72;5089890;28;20224;-76
2022/09/30 06:18:26;;;;;;;5.15;2.80;;;;;;;18.58;nan;-24334.22;5071531;28;20181;-77
2022/09/30 06:20:55;;;;;;;3.85;2.45;;;;;;;18.46;nan;-24331.00;5071810;28;20173;-77
2022/09/30 06:23:21;;;;;;;5.30;2.80;;;;;;;18.58;nan;-24334.38;5089913;28;20217;-78
2022/09/30 06:25:54;;;;;;;4.53;2.70;;;;;;;18.55;nan;-24333.53;5071747;28;20184;-78
2022/09/30 06:28:20;;;;;;;4.75;2.78;;;;;;;18.80;nan;-24340.34;5072438;28;20193;-78
2022/09/30 06:30:46;;;;;;;5.13;2.90;;;;;;;18.89;nan;-24343.00;5090150;28;20177;-78
2022/09/30 06:33:12;;;;;;;4.82;2.67;;;;;;;18.72;nan;-24338.25;5072591;28;20181;-79
2022/09/30 06:35:40;;;;;;;3.50;2.67;;;;;;;19.09;nan;-24348.28;5072346;28;20197;-65
2022/09/30 06:38:07;;;;;;;4.15;2.60;;;;;;;19.48;nan;-24359.13;5090625;28;20196;-65
2022/09/30 06:40:33;;;;;;;5.07;3.13;;;;;;;19.97;nan;-24372.63;5092329;28;20169;-63
2022/09/30 06:43:00;;;;;;;3.58;2.60;;;;;;;19.99;nan;-24373.19;5094188;28;20177;-65
2022/09/30 06:45:27;;;;;;;3.97;2.80;;;;;;;19.98;nan;-24372.91;5094306;28;20628;-64
2022/09/30 06:48:00;;;;;;;3.50;2.50;;;;;;;20.07;nan;-24375.41;5094464;28;20250;-63
2022/09/30 06:50:26;;;;;;;5.55;2.95;;;;;;;20.16;nan;-24377.75;5094143;28;20173;-63
2022/09/30 06:52:56;;;;;;;3.78;2.70;;;;;;;20.11;nan;-24376.50;5094057;28;20264;-64
2022/09/30 06:55:23;;;;;;;6.35;2.63;;;;;;;20.42;nan;-24384.84;5093652;28;20199;-64
2022/09/30 06:57:48;;;;;;;3.92;2.60;;;;;;;20.19;nan;-24378.75;5093773;28;20604;-63
2022/09/30 07:00:16;;;;;;;3.85;2.45;;;;;;;20.17;nan;-24378.19;5094476;28;20185;-63
2022/09/30 07:02:42;;;;;;;3.22;2.10;;;;;;;20.08;nan;-24375.69;5093695;28;20721;-62
2022/09/30 07:05:08;;;;;;;3.30;2.17;;;;;;;20.36;nan;-24383.19;5093800;28;20322;-64
2022/09/30 07:07:35;;;;;;;3.95;2.25;;;;;;;20.60;nan;-24389.84;5093621;28;20162;-64
2022/09/30 07:10:02;;;;;;;3.97;2.15;;;;;;;20.75;nan;-24394.00;5089700;28;20185;-64
2022/09/30 07:12:27;;;;;;;3.00;2.00;;;;;;;20.66;nan;-24391.50;5073411;28;20193;-64
2022/09/30 07:14:54;;;;;;;2.38;1.92;;;;;;;20.79;nan;-24394.97;5074188;28;20736;-65
2022/09/30 07:17:20;;;;;;;3.30;2.33;;;;;;;20.90;nan;-24398.16;5073984;28;20183;-63
2022/09/30 07:19:45;;;;;;;3.20;2.30;;;;;;;21.29;nan;-24408.72;5073707;28;20177;-64
2022/09/30 07:22:26;;;;;;;3.53;2.05;;;;;;;21.19;nan;-24405.94;5073972;28;20251;-65
2022/09/30 07:24:52;;;;;;;3.45;2.20;;;;;;;21.45;nan;-24413.16;5074257;28;20195;-63
2022/09/30 07:27:17;;;;;;;3.53;2.13;;;;;;;21.83;nan;-24423.53;5073860;28;20182;-63
2022/09/30 07:29:44;;;;;;;4.00;2.33;;;;;;;21.71;nan;-24420.34;5074077;28;20192;-63
2022/09/30 07:32:10;;;;;;;4.38;2.53;;;;;;;21.70;nan;-24420.06;5073324;28;20170;-63
2022/09/30 07:34:36;;;;;;;3.22;2.30;;;;;;;21.65;nan;-24418.69;5073235;28;20208;-64
2022/09/30 07:37:02;;;;;;;2.10;1.63;;;;;;;21.53;nan;-24415.38;5071968;28;20193;-63
2022/09/30 07:39:27;;;;;;;2.75;2.20;;;;;;;21.91;nan;-24425.75;5072543;28;20189;-65
2022/09/30 07:41:53;;;;;;;3.72;2.00;;;;;;;22.23;nan;-24434.47;5069906;28;20185;-62
2022/09/30 07:44:19;;;;;;;2.53;1.77;;;;;;;22.26;nan;-24435.44;5069114;28;20181;-64
2022/09/30 07:46:50;;;;;;;5.75;2.35;;;;;;;22.34;nan;-24437.53;5071675;28;20180;-64
2022/09/30 07:49:37;;;;;;;3.92;2.25;;;;;;;22.69;nan;-24447.19;5039098;28;20891;-64
2022/09/30 07:52:05;;;;;;;5.72;2.30;;;;;;;22.70;nan;-24447.50;5067933;28;20621;-63
2022/09/30 07:54:32;;;;;;;3.05;2.42;;;;;;;22.84;nan;-24451.34;5056114;28;20225;-64
2022/09/30 07:57:10;;;;;;;3.85;2.50;;;;;;;23.20;nan;-24461.03;5070563;28;20193;-65
2022/09/30 07:59:38;;;;;;;2.55;2.25;;;;;;;22.99;nan;-24455.22;5058212;28;20181;-65
2022/09/30 08:02:06;;;;;;;3.53;2.50;;;;;;;23.37;nan;-24465.59;5071677;28;20185;-64
2022/09/30 08:04:32;;;;;;;4.07;2.30;;;;;;;23.49;nan;-24469.03;5071862;28;20215;-63
2022/09/30 08:07:00;;;;;;;3.40;2.60;;;;;;;23.34;nan;-24465.03;5071665;28;21052;-64
2022/09/30 08:09:27;;;;;;;6.28;3.03;;;;;;;23.53;nan;-24470.16;5072567;28;20196;-63
2022/09/30 08:11:53;;;;;;;6.30;2.78;;;;;;;23.64;nan;-24473.19;5070924;28;20973;-63
2022/09/30 08:14:25;;;;;;;2.63;2.15;;;;;;;23.79;nan;-24477.19;5070861;28;20192;-63
2022/09/30 08:16:51;;;;;;;3.30;2.38;;;;;;;24.05;nan;-24484.34;5071106;28;20217;-62
2022/09/30 08:19:21;;;;;;;4.07;2.50;;;;;;;24.02;nan;-24483.41;5074622;28;20275;-62
2022/09/30 08:21:47;;;;;;;3.08;2.45;;;;;;;24.27;nan;-24490.16;5072861;28;20287;-62
2022/09/30 08:24:13;;;;;;;3.22;2.60;;;;;;;24.00;nan;-24482.84;5072130;28;20190;-65
2022/09/30 08:26:40;;;;;;;3.50;2.35;;;;;;;24.44;nan;-24494.97;5082418;28;20679;-64
2022/09/30 08:29:05;;;;;;;3.55;2.42;;;;;;;23.95;nan;-24481.59;5075212;28;20174;-66
2022/09/30 08:31:34;;;;;;;3.05;2.08;;;;;;;24.44;nan;-24494.84;5073117;28;20205;-64
2022/09/30 08:34:01;;;;;;;3.58;2.53;;;;;;;24.60;nan;-24499.25;5075269;28;20195;-62
2022/09/30 08:36:28;;;;;;;2.92;2.30;;;;;;;24.51;nan;-24496.78;5073480;28;20208;-65
2022/09/30 08:38:54;;;;;;;3.53;2.25;;;;;;;24.70;nan;-24502.00;5070711;28;20184;-65
2022/09/30 08:41:37;;;;;;;5.03;2.88;;;;;;;24.64;nan;-24500.50;5069778;28;20561;-62
2022/09/30 08:44:42;;;;;;;3.17;2.40;;;;;;;24.69;nan;-24501.72;5070121;28;20178;-65
2022/09/30 08:47:27;;;;;;;2.95;2.30;;;;;;;24.79;nan;-24504.34;5074053;28;20516;-65
2022/09/30 08:50:30;;;;;;;3.08;2.22;;;;;;;24.61;nan;-24499.53;5073850;28;20312;-65
2022/09/30 08:53:04;;;;;;;5.50;2.90;;;;;;;24.54;nan;-24497.75;5071769;28;20817;-66
2022/09/30 08:55:42;;;;;;;4.32;3.25;;;;;;;25.02;nan;-24510.69;5070763;28;20205;-65
2022/09/30 08:58:23;;;;;;;3.03;2.15;;;;;;;24.76;nan;-24503.66;5068868;28;20245;-64
2022/09/30 09:00:54;;;;;;;3.65;2.47;;;;;;;25.07;nan;-24512.19;5069724;28;20226;-64
2022/09/30 09:03:22;;;;;;;3.63;2.10;;;;;;;25.28;nan;-24517.84;5072406;28;20600;-63
2022/09/30 09:06:02;;;;;;;3.45;2.67;;;;;;;25.09;nan;-24512.63;5071889;28;20177;-65
2022/09/30 09:08:52;;;;;;;3.72;2.47;;;;;;;25.11;nan;-24513.16;5070629;28;20173;-60
2022/09/30 09:11:47;;;;;;;3.38;2.38;;;;;;;24.95;nan;-24508.75;5078066;28;20196;-60
2022/09/30 09:14:37;;;;;;;5.22;2.50;;;;;;;25.51;nan;-24524.03;5079738;28;20326;-61
2022/09/30 09:17:30;;;;;;;3.75;2.53;;;;;;;25.77;nan;-24531.06;5076163;28;20679;-77
2022/09/30 09:20:12;;;;;;;3.35;2.55;;;;;;;25.91;nan;-24534.91;5070575;28;20882;-74
2022/09/30 09:22:38;;;;;;;5.00;2.50;;;;;;;25.98;nan;-24536.81;5073867;28;20663;-75
2022/09/30 09:25:04;;;;;;;3.17;2.10;;;;;;;25.92;nan;-24535.31;5066899;28;20189;-73
2022/09/30 09:27:29;;;;;;;5.00;2.22;;;;;;;26.04;nan;-24538.34;5074197;28;20182;-74
2022/09/30 09:30:09;;;;;;;3.63;2.30;;;;;;;26.12;nan;-24540.53;5075906;28;20188;-75
2022/09/30 09:32:35;;;;;;;4.43;2.83;;;;;;;25.91;nan;-24534.91;5075754;28;20173;-74
2022/09/30 09:35:12;;;;;;;5.65;2.60;;;;;;;26.26;nan;-24544.38;5072334;28;20218;-75
2022/09/30 09:40:40;;;;;;;3.00;1.83;;;;;;;26.79;nan;-24558.94;5069190;28;20192;-74
2022/09/30 09:43:12;;;;;;;2.38;2.00;;;;;;;26.59;nan;-24553.44;5055315;28;20615;-72
2022/09/30 09:45:59;;;;;;;3.08;2.22;;;;;;;26.86;nan;-24560.59;5074585;28;20272;-74
2022/09/30 09:48:25;;;;;;;3.85;2.40;;;;;;;27.02;nan;-24564.97;5071951;28;20235;-76
2022/09/30 09:51:35;;;;;;;3.47;2.38;;;;;;;27.28;nan;-24571.97;5057746;28;20173;-72
2022/09/30 09:54:01;;;;;;;3.42;2.20;;;;;;;26.80;nan;-24559.06;4970424;28;20196;-74
2022/09/30 09:56:32;;;;;;;2.50;2.13;;;;;;;27.20;nan;-24570.06;5057067;28;20230;-74
2022/09/30 09:59:15;;;;;;;5.63;2.40;;;;;;;26.86;nan;-24560.72;5073631;28;20496;-75
2022/09/30 10:01:45;;;;;;;3.13;2.08;;;;;;;26.93;nan;-24562.66;5072163;28;20276;-73
2022/09/30 10:04:15;;;;;;;2.78;2.20;;;;;;;27.01;nan;-24564.69;5070273;28;20174;-71
2022/09/30 10:06:43;;;;;;;3.17;2.20;;;;;;;27.41;nan;-24575.66;5070114;28;20202;-78
2022/09/30 10:09:23;;;;;;;2.28;1.80;;;;;;;27.22;nan;-24570.47;5067142;28;20672;-72
2022/09/30 10:11:48;;;;;;;4.28;2.10;;;;;;;27.27;nan;-24571.84;5070630;28;20276;-73
2022/09/30 10:14:20;;;;;;;3.25;2.33;;;;;;;27.34;nan;-24573.63;5067738;28;20307;-76
2022/09/30 10:16:46;;;;;;;4.15;2.17;;;;;;;27.62;nan;-24581.28;5073514;28;20185;-75
2022/09/30 10:19:25;;;;;;;3.42;2.47;;;;;;;27.54;nan;-24579.09;5059396;28;20548;-75
2022/09/30 10:22:12;;;;;;;3.53;2.03;;;;;;;27.23;nan;-24570.75;5071572;28;20224;-76
2022/09/30 10:24:39;;;;;;;3.13;2.08;;;;;;;27.37;nan;-24574.44;5073340;28;20189;-74
2022/09/30 10:27:33;;;;;;;2.38;2.00;;;;;;;27.60;nan;-24580.75;5054836;28;20572;-74
2022/09/30 10:29:58;;;;;;;3.60;2.40;;;;;;;27.62;nan;-24581.44;5072689;28;20192;-73
2022/09/30 10:32:25;;;;;;;6.30;2.55;;;;;;;27.60;nan;-24580.75;5071505;28;20234;-76
2022/09/30 10:34:59;;;;;;;3.13;2.33;;;;;;;27.62;nan;-24581.28;5070926;28;20217;-76
2022/09/30 10:37:24;;;;;;;2.97;2.17;;;;;;;28.03;nan;-24592.53;5058722;28;20188;-77
2022/09/30 10:40:04;;;;;;;4.55;2.03;;;;;;;27.87;nan;-24588.13;5061261;28;20682;-74
2022/09/30 10:42:34;;;;;;;3.45;2.33;;;;;;;28.23;nan;-24597.88;5072012;28;20192;-75
2022/09/30 10:45:08;;;;;;;3.53;2.25;;;;;;;28.24;nan;-24598.13;5071997;28;20229;-73
2022/09/30 10:47:42;;;;;;;3.45;2.10;;;;;;;27.97;nan;-24590.88;5070769;28;20185;-76
2022/09/30 10:50:15;;;;;;;2.78;2.08;;;;;;;28.51;nan;-24605.53;5061165;28;20230;-77
2022/09/30 10:52:49;;;;;;;3.47;2.30;;;;;;;28.55;nan;-24606.63;5070844;28;20222;-72
2022/09/30 10:55:21;;;;;;;3.97;2.40;;;;;;;28.53;nan;-24606.06;5069915;28;20214;-73
2022/09/30 10:57:51;;;;;;;2.72;2.25;;;;;;;28.43;nan;-24603.34;5071464;28;20216;-74
2022/09/30 11:00:24;;;;;;;2.88;2.15;;;;;;;27.77;nan;-24585.41;5070723;28;20412;-74
2022/09/30 11:03:11;;;;;;;2.30;2.08;;;;;;;28.07;nan;-24593.63;5072303;28;20209;-73
2022/09/30 11:05:42;;;;;;;2.75;1.98;;;;;;;28.25;nan;-24598.28;5070355;28;20165;-74
2022/09/30 11:08:19;;;;;;;3.05;1.98;;;;;;;27.78;nan;-24585.53;5073022;28;20575;-76
2022/09/30 11:11:09;;;;;;;3.75;2.20;;;;;;;27.98;nan;-24591.00;5070703;28;20180;-77
2022/09/30 11:13:43;;;;;;;2.55;2.00;;;;;;;28.13;nan;-24595.13;5075279;28;20621;-77
2022/09/30 11:16:23;;;;;;;2.38;1.95;;;;;;;28.38;nan;-24601.97;5071133;28;20678;-77
2022/09/30 11:19:04;;;;;;;4.25;2.55;;;;;;;28.25;nan;-24598.41;5075195;28;20178;-78
2022/09/30 11:21:45;;;;;;;2.85;2.08;;;;;;;28.30;nan;-24599.78;5073736;28;20230;-79
2022/09/30 11:24:14;;;;;;;3.00;2.35;;;;;;;28.24;nan;-24598.00;5078287;28;20184;-76
2022/09/30 11:26:49;;;;;;;2.72;1.73;;;;;;;28.54;nan;-24606.22;5079449;28;20655;-76
2022/09/30 11:29:32;;;;;;;2.88;2.28;;;;;;;28.60;nan;-24607.72;5073971;28;20184;-74
2022/09/30 11:32:00;;;;;;;4.22;1.75;;;;;;;28.28;nan;-24599.22;5074035;28;20177;-75
2022/09/30 11:34:47;;;;;;;2.67;1.90;;;;;;;28.41;nan;-24602.78;5072876;28;20256;-73
2022/09/30 11:38:03;;;;;;;3.20;2.38;;;;;;;28.71;nan;-24610.72;5071492;28;21127;-73
2022/09/30 11:40:36;;;;;;;2.35;1.95;;;;;;;28.92;nan;-24616.59;4991739;28;20678;-75
2022/09/30 11:43:37;;;;;;;2.95;2.00;;;;;;;28.83;nan;-24614.00;5067187;28;20294;-74
2022/09/30 11:46:24;;;;;;;2.55;2.03;;;;;;;28.99;nan;-24618.38;5072571;28;20186;-72
2022/09/30 11:48:55;;;;;;;2.95;2.00;;;;;;;28.76;nan;-24612.22;5072869;28;20184;-77
2022/09/30 11:51:31;;;;;;;3.35;2.05;;;;;;;28.59;nan;-24607.44;5073643;28;20181;-76
2022/09/30 11:54:01;;;;;;;4.65;2.10;;;;;;;28.87;nan;-24615.09;5073127;28;20176;-77
2022/09/30 11:56:47;;;;;;;3.20;2.20;;;;;;;28.54;nan;-24606.22;5072745;28;20208;-74
2022/09/30 11:59:27;;;;;;;2.35;1.90;;;;;;;28.40;nan;-24602.50;5072832;28;20263;-75
2022/09/30 12:01:57;;;;;;;2.75;1.80;;;;;;;28.29;nan;-24599.50;5070474;28;20263;-76
2022/09/30 12:04:33;;;;;;;2.95;2.10;;;;;;;28.33;nan;-24600.47;5077890;28;20582;-72
2022/09/30 12:07:22;;;;;;;2.88;2.10;;;;;;;28.53;nan;-24606.06;5072360;28;20193;-75
2022/09/30 12:09:59;;;;;;;2.97;1.90;;;;;;;28.44;nan;-24603.47;5060676;28;20197;-74
2022/09/30 12:12:25;;;;;;;3.78;2.63;;;;;;;28.69;nan;-24610.16;5075230;28;20182;-75